sensor_id;sensor_type;location;lat;lon;timestamp;P1;durP1;ratioP1;P2;durP2;ratioP2
47749;SDS011;49810;48.160;10.812;2023-06-10T00:01:27;16.73;;;14.00;;
47749;SDS011;49810;48.160;10.812;2023-06-10T00:03:55;16.65;;;14.15;;
47749;SDS011;49810;48.160;10.812;2023-06-10T00:06:24;15.68;;;13.77;;
47749;SDS011;49810;48.160;10.812;2023-06-10T00:08:52;16.45;;;14.32;;
47749;SDS011;49810;48.160;10.812;2023-06-10T00:11:20;16.45;;;13.77;;
47749;SDS011;49810;48.160;10.812;2023-06-10T00:13:48;19.80;;;14.43;;
47749;SDS011;49810;48.160;10.812;2023-06-10T00:16:17;16.85;;;13.25;;
47749;SDS011;49810;48.160;10.812;2023-06-10T00:18:46;19.13;;;13.85;;
47749;SDS011;49810;48.160;10.812;2023-06-10T00:21:15;17.95;;;14.18;;
47749;SDS011;49810;48.160;10.812;2023-06-10T00:23:43;15.75;;;14.07;;
47749;SDS011;49810;48.160;10.812;2023-06-10T00:26:11;16.10;;;13.85;;
47749;SDS011;49810;48.160;10.812;2023-06-10T00:28:41;17.85;;;14.85;;
47749;SDS011;49810;48.160;10.812;2023-06-10T00:31:09;17.75;;;14.35;;
47749;SDS011;49810;48.160;10.812;2023-06-10T00:33:39;18.80;;;14.55;;
47749;SDS011;49810;48.160;10.812;2023-06-10T00:36:07;16.83;;;14.23;;
47749;SDS011;49810;48.160;10.812;2023-06-10T00:38:35;18.55;;;15.95;;
47749;SDS011;49810;48.160;10.812;2023-06-10T00:41:03;19.00;;;14.77;;
47749;SDS011;49810;48.160;10.812;2023-06-10T00:43:31;26.83;;;15.73;;
47749;SDS011;49810;48.160;10.812;2023-06-10T00:45:59;22.02;;;16.80;;
47749;SDS011;49810;48.160;10.812;2023-06-10T00:48:29;18.10;;;15.10;;
47749;SDS011;49810;48.160;10.812;2023-06-10T00:50:58;19.50;;;15.05;;
47749;SDS011;49810;48.160;10.812;2023-06-10T00:53:27;18.58;;;15.18;;
47749;SDS011;49810;48.160;10.812;2023-06-10T00:55:55;17.95;;;15.43;;
47749;SDS011;49810;48.160;10.812;2023-06-10T00:58:23;18.80;;;15.70;;
47749;SDS011;49810;48.160;10.812;2023-06-10T01:00:52;18.40;;;15.20;;
47749;SDS011;49810;48.160;10.812;2023-06-10T01:03:20;17.98;;;15.73;;
47749;SDS011;49810;48.160;10.812;2023-06-10T01:05:50;21.40;;;15.70;;
47749;SDS011;49810;48.160;10.812;2023-06-10T01:08:23;17.58;;;15.65;;
47749;SDS011;49810;48.160;10.812;2023-06-10T01:10:57;17.60;;;14.98;;
47749;SDS011;49810;48.160;10.812;2023-06-10T01:13:27;20.17;;;16.48;;
47749;SDS011;49810;48.160;10.812;2023-06-10T01:15:57;19.35;;;15.02;;
47749;SDS011;49810;48.160;10.812;2023-06-10T01:18:29;17.92;;;14.52;;
47749;SDS011;49810;48.160;10.812;2023-06-10T01:20:57;17.85;;;14.93;;
47749;SDS011;49810;48.160;10.812;2023-06-10T01:23:27;21.15;;;15.25;;
47749;SDS011;49810;48.160;10.812;2023-06-10T01:25:56;19.90;;;16.42;;
47749;SDS011;49810;48.160;10.812;2023-06-10T01:28:27;19.55;;;16.20;;
47749;SDS011;49810;48.160;10.812;2023-06-10T01:30:59;18.52;;;15.45;;
47749;SDS011;49810;48.160;10.812;2023-06-10T01:33:31;19.15;;;16.15;;
47749;SDS011;49810;48.160;10.812;2023-06-10T01:36:01;21.08;;;16.00;;
47749;SDS011;49810;48.160;10.812;2023-06-10T01:38:32;20.83;;;15.82;;
47749;SDS011;49810;48.160;10.812;2023-06-10T01:41:01;19.35;;;16.92;;
47749;SDS011;49810;48.160;10.812;2023-06-10T01:43:31;20.27;;;16.20;;
47749;SDS011;49810;48.160;10.812;2023-06-10T01:46:00;18.08;;;16.17;;
47749;SDS011;49810;48.160;10.812;2023-06-10T01:48:29;19.33;;;16.25;;
47749;SDS011;49810;48.160;10.812;2023-06-10T01:50:57;18.40;;;16.23;;
47749;SDS011;49810;48.160;10.812;2023-06-10T01:53:25;20.70;;;16.30;;
47749;SDS011;49810;48.160;10.812;2023-06-10T01:55:56;22.08;;;16.80;;
47749;SDS011;49810;48.160;10.812;2023-06-10T01:58:25;23.63;;;17.38;;
47749;SDS011;49810;48.160;10.812;2023-06-10T02:00:53;18.83;;;16.08;;
47749;SDS011;49810;48.160;10.812;2023-06-10T02:03:21;23.38;;;16.40;;
47749;SDS011;49810;48.160;10.812;2023-06-10T02:05:49;20.92;;;16.80;;
47749;SDS011;49810;48.160;10.812;2023-06-10T02:08:17;18.55;;;15.60;;
47749;SDS011;49810;48.160;10.812;2023-06-10T02:10:45;18.88;;;14.55;;
47749;SDS011;49810;48.160;10.812;2023-06-10T02:13:15;19.75;;;16.38;;
47749;SDS011;49810;48.160;10.812;2023-06-10T02:15:43;19.40;;;16.33;;
47749;SDS011;49810;48.160;10.812;2023-06-10T02:18:11;21.67;;;15.82;;
47749;SDS011;49810;48.160;10.812;2023-06-10T02:20:40;20.38;;;16.90;;
47749;SDS011;49810;48.160;10.812;2023-06-10T02:23:08;18.55;;;16.23;;
47749;SDS011;49810;48.160;10.812;2023-06-10T02:25:36;18.50;;;16.38;;
47749;SDS011;49810;48.160;10.812;2023-06-10T02:28:04;18.17;;;16.25;;
47749;SDS011;49810;48.160;10.812;2023-06-10T02:30:34;18.55;;;16.20;;
47749;SDS011;49810;48.160;10.812;2023-06-10T02:33:03;22.30;;;16.77;;
47749;SDS011;49810;48.160;10.812;2023-06-10T02:35:33;18.15;;;15.88;;
47749;SDS011;49810;48.160;10.812;2023-06-10T02:38:02;19.23;;;16.25;;
47749;SDS011;49810;48.160;10.812;2023-06-10T02:40:32;17.58;;;15.68;;
47749;SDS011;49810;48.160;10.812;2023-06-10T02:43:00;18.27;;;16.10;;
47749;SDS011;49810;48.160;10.812;2023-06-10T02:45:28;25.60;;;16.50;;
47749;SDS011;49810;48.160;10.812;2023-06-10T02:47:59;20.80;;;16.17;;
47749;SDS011;49810;48.160;10.812;2023-06-10T02:50:28;18.92;;;15.98;;
47749;SDS011;49810;48.160;10.812;2023-06-10T02:53:34;22.10;;;16.15;;
47749;SDS011;49810;48.160;10.812;2023-06-10T02:56:08;19.63;;;16.27;;
47749;SDS011;49810;48.160;10.812;2023-06-10T02:58:37;20.55;;;16.67;;
47749;SDS011;49810;48.160;10.812;2023-06-10T03:01:06;20.42;;;16.30;;
47749;SDS011;49810;48.160;10.812;2023-06-10T03:03:46;21.35;;;16.40;;
47749;SDS011;49810;48.160;10.812;2023-06-10T03:06:16;19.85;;;16.10;;
47749;SDS011;49810;48.160;10.812;2023-06-10T03:08:45;19.83;;;16.75;;
47749;SDS011;49810;48.160;10.812;2023-06-10T03:11:16;19.05;;;15.40;;
47749;SDS011;49810;48.160;10.812;2023-06-10T03:13:47;17.60;;;15.02;;
47749;SDS011;49810;48.160;10.812;2023-06-10T03:16:17;17.77;;;15.60;;
47749;SDS011;49810;48.160;10.812;2023-06-10T03:18:47;17.90;;;15.48;;
47749;SDS011;49810;48.160;10.812;2023-06-10T03:21:15;19.67;;;15.55;;
47749;SDS011;49810;48.160;10.812;2023-06-10T03:23:43;20.73;;;15.75;;
47749;SDS011;49810;48.160;10.812;2023-06-10T03:26:11;20.80;;;16.17;;
47749;SDS011;49810;48.160;10.812;2023-06-10T03:28:43;24.05;;;17.13;;
47749;SDS011;49810;48.160;10.812;2023-06-10T03:31:11;20.35;;;16.35;;
47749;SDS011;49810;48.160;10.812;2023-06-10T03:33:39;18.92;;;15.05;;
47749;SDS011;49810;48.160;10.812;2023-06-10T03:36:09;19.65;;;15.75;;
47749;SDS011;49810;48.160;10.812;2023-06-10T03:38:37;19.75;;;15.70;;
47749;SDS011;49810;48.160;10.812;2023-06-10T03:41:06;20.27;;;15.95;;
47749;SDS011;49810;48.160;10.812;2023-06-10T03:43:35;19.85;;;16.10;;
47749;SDS011;49810;48.160;10.812;2023-06-10T03:46:05;18.48;;;15.55;;
47749;SDS011;49810;48.160;10.812;2023-06-10T03:48:33;19.45;;;15.70;;
47749;SDS011;49810;48.160;10.812;2023-06-10T03:51:01;20.52;;;15.63;;
47749;SDS011;49810;48.160;10.812;2023-06-10T03:53:31;18.60;;;15.73;;
47749;SDS011;49810;48.160;10.812;2023-06-10T03:55:59;17.80;;;14.82;;
47749;SDS011;49810;48.160;10.812;2023-06-10T03:58:27;19.20;;;15.75;;
47749;SDS011;49810;48.160;10.812;2023-06-10T04:00:55;19.63;;;15.25;;
47749;SDS011;49810;48.160;10.812;2023-06-10T04:03:31;20.17;;;16.88;;
47749;SDS011;49810;48.160;10.812;2023-06-10T04:06:00;20.13;;;16.30;;
47749;SDS011;49810;48.160;10.812;2023-06-10T04:08:28;21.63;;;16.25;;
47749;SDS011;49810;48.160;10.812;2023-06-10T04:10:57;19.42;;;16.15;;
47749;SDS011;49810;48.160;10.812;2023-06-10T04:13:26;18.67;;;16.40;;
47749;SDS011;49810;48.160;10.812;2023-06-10T04:15:57;19.90;;;15.57;;
47749;SDS011;49810;48.160;10.812;2023-06-10T04:18:26;19.02;;;16.13;;
47749;SDS011;49810;48.160;10.812;2023-06-10T04:20:57;19.42;;;15.43;;
47749;SDS011;49810;48.160;10.812;2023-06-10T04:23:26;21.27;;;16.17;;
47749;SDS011;49810;48.160;10.812;2023-06-10T04:25:54;21.55;;;15.95;;
47749;SDS011;49810;48.160;10.812;2023-06-10T04:28:25;17.88;;;14.32;;
47749;SDS011;49810;48.160;10.812;2023-06-10T04:30:54;19.67;;;14.63;;
47749;SDS011;49810;48.160;10.812;2023-06-10T04:33:22;21.13;;;15.60;;
47749;SDS011;49810;48.160;10.812;2023-06-10T04:35:51;17.90;;;14.45;;
47749;SDS011;49810;48.160;10.812;2023-06-10T04:38:21;18.20;;;15.23;;
47749;SDS011;49810;48.160;10.812;2023-06-10T04:40:49;17.67;;;15.23;;
47749;SDS011;49810;48.160;10.812;2023-06-10T04:43:19;20.05;;;17.15;;
47749;SDS011;49810;48.160;10.812;2023-06-10T04:45:49;18.05;;;15.88;;
47749;SDS011;49810;48.160;10.812;2023-06-10T04:48:17;19.25;;;15.15;;
47749;SDS011;49810;48.160;10.812;2023-06-10T04:50:46;20.05;;;15.65;;
47749;SDS011;49810;48.160;10.812;2023-06-10T04:53:14;18.13;;;15.80;;
47749;SDS011;49810;48.160;10.812;2023-06-10T04:55:45;19.45;;;16.25;;
47749;SDS011;49810;48.160;10.812;2023-06-10T04:58:13;21.75;;;17.15;;
47749;SDS011;49810;48.160;10.812;2023-06-10T05:00:41;19.52;;;15.27;;
47749;SDS011;49810;48.160;10.812;2023-06-10T05:03:11;19.92;;;15.35;;
47749;SDS011;49810;48.160;10.812;2023-06-10T05:05:39;19.75;;;15.73;;
47749;SDS011;49810;48.160;10.812;2023-06-10T05:08:07;18.33;;;15.55;;
47749;SDS011;49810;48.160;10.812;2023-06-10T05:10:35;19.25;;;16.25;;
47749;SDS011;49810;48.160;10.812;2023-06-10T05:13:04;18.95;;;15.05;;
47749;SDS011;49810;48.160;10.812;2023-06-10T05:15:32;18.85;;;15.57;;
47749;SDS011;49810;48.160;10.812;2023-06-10T05:18:00;18.38;;;14.93;;
47749;SDS011;49810;48.160;10.812;2023-06-10T05:20:30;16.48;;;13.82;;
47749;SDS011;49810;48.160;10.812;2023-06-10T05:22:58;16.65;;;13.85;;
47749;SDS011;49810;48.160;10.812;2023-06-10T05:25:28;18.15;;;13.98;;
47749;SDS011;49810;48.160;10.812;2023-06-10T05:27:57;17.05;;;13.65;;
47749;SDS011;49810;48.160;10.812;2023-06-10T05:30:25;17.45;;;13.25;;
47749;SDS011;49810;48.160;10.812;2023-06-10T05:32:53;15.13;;;12.80;;
47749;SDS011;49810;48.160;10.812;2023-06-10T05:35:22;15.50;;;12.95;;
47749;SDS011;49810;48.160;10.812;2023-06-10T05:37:52;16.13;;;13.27;;
47749;SDS011;49810;48.160;10.812;2023-06-10T05:40:19;15.85;;;12.93;;
47749;SDS011;49810;48.160;10.812;2023-06-10T05:42:47;15.40;;;13.15;;
47749;SDS011;49810;48.160;10.812;2023-06-10T05:45:15;16.00;;;13.38;;
47749;SDS011;49810;48.160;10.812;2023-06-10T05:47:43;15.88;;;13.07;;
47749;SDS011;49810;48.160;10.812;2023-06-10T05:50:11;17.15;;;13.02;;
47749;SDS011;49810;48.160;10.812;2023-06-10T05:52:39;17.05;;;13.85;;
47749;SDS011;49810;48.160;10.812;2023-06-10T05:55:09;16.50;;;13.10;;
47749;SDS011;49810;48.160;10.812;2023-06-10T05:57:38;17.55;;;13.88;;
47749;SDS011;49810;48.160;10.812;2023-06-10T06:00:06;16.95;;;13.02;;
47749;SDS011;49810;48.160;10.812;2023-06-10T06:02:38;16.58;;;13.15;;
47749;SDS011;49810;48.160;10.812;2023-06-10T06:05:06;16.27;;;13.73;;
47749;SDS011;49810;48.160;10.812;2023-06-10T06:07:37;16.45;;;13.57;;
47749;SDS011;49810;48.160;10.812;2023-06-10T06:10:06;20.35;;;14.45;;
47749;SDS011;49810;48.160;10.812;2023-06-10T06:12:38;17.40;;;13.07;;
47749;SDS011;49810;48.160;10.812;2023-06-10T06:15:06;17.67;;;13.68;;
47749;SDS011;49810;48.160;10.812;2023-06-10T06:17:35;16.55;;;13.10;;
47749;SDS011;49810;48.160;10.812;2023-06-10T06:20:03;15.20;;;13.30;;
47749;SDS011;49810;48.160;10.812;2023-06-10T06:22:32;17.38;;;14.93;;
47749;SDS011;49810;48.160;10.812;2023-06-10T06:24:59;15.85;;;13.68;;
47749;SDS011;49810;48.160;10.812;2023-06-10T06:27:28;16.95;;;13.85;;
47749;SDS011;49810;48.160;10.812;2023-06-10T06:29:59;17.27;;;14.32;;
47749;SDS011;49810;48.160;10.812;2023-06-10T06:32:29;17.55;;;14.00;;
47749;SDS011;49810;48.160;10.812;2023-06-10T06:34:57;16.25;;;13.68;;
47749;SDS011;49810;48.160;10.812;2023-06-10T06:37:25;21.10;;;12.90;;
47749;SDS011;49810;48.160;10.812;2023-06-10T06:40:08;16.35;;;13.32;;
47749;SDS011;49810;48.160;10.812;2023-06-10T06:42:36;19.35;;;16.27;;
47749;SDS011;49810;48.160;10.812;2023-06-10T06:45:37;16.15;;;13.13;;
47749;SDS011;49810;48.160;10.812;2023-06-10T06:48:06;17.27;;;12.90;;
47749;SDS011;49810;48.160;10.812;2023-06-10T06:50:34;15.95;;;12.07;;
47749;SDS011;49810;48.160;10.812;2023-06-10T06:53:02;14.27;;;11.75;;
47749;SDS011;49810;48.160;10.812;2023-06-10T06:55:30;15.15;;;12.25;;
47749;SDS011;49810;48.160;10.812;2023-06-10T06:57:58;15.35;;;12.02;;
47749;SDS011;49810;48.160;10.812;2023-06-10T07:00:29;14.77;;;11.30;;
47749;SDS011;49810;48.160;10.812;2023-06-10T07:02:58;14.77;;;11.65;;
47749;SDS011;49810;48.160;10.812;2023-06-10T07:05:27;14.40;;;11.82;;
47749;SDS011;49810;48.160;10.812;2023-06-10T07:07:55;14.88;;;10.93;;
47749;SDS011;49810;48.160;10.812;2023-06-10T07:10:23;21.42;;;11.07;;
47749;SDS011;49810;48.160;10.812;2023-06-10T07:12:52;14.60;;;10.85;;
47749;SDS011;49810;48.160;10.812;2023-06-10T07:15:20;13.02;;;10.00;;
47749;SDS011;49810;48.160;10.812;2023-06-10T07:17:48;14.35;;;10.10;;
47749;SDS011;49810;48.160;10.812;2023-06-10T07:20:17;14.40;;;10.80;;
47749;SDS011;49810;48.160;10.812;2023-06-10T07:22:45;13.60;;;9.20;;
47749;SDS011;49810;48.160;10.812;2023-06-10T07:25:13;11.93;;;9.75;;
47749;SDS011;49810;48.160;10.812;2023-06-10T07:27:42;11.00;;;9.40;;
47749;SDS011;49810;48.160;10.812;2023-06-10T07:30:11;11.55;;;9.60;;
47749;SDS011;49810;48.160;10.812;2023-06-10T07:32:40;13.50;;;10.25;;
47749;SDS011;49810;48.160;10.812;2023-06-10T07:35:09;11.65;;;9.95;;
47749;SDS011;49810;48.160;10.812;2023-06-10T07:37:40;10.93;;;8.95;;
47749;SDS011;49810;48.160;10.812;2023-06-10T07:40:12;14.25;;;10.38;;
47749;SDS011;49810;48.160;10.812;2023-06-10T07:42:40;11.23;;;8.90;;
47749;SDS011;49810;48.160;10.812;2023-06-10T07:45:08;11.38;;;9.02;;
47749;SDS011;49810;48.160;10.812;2023-06-10T07:47:37;12.32;;;9.52;;
47749;SDS011;49810;48.160;10.812;2023-06-10T07:50:05;12.18;;;9.90;;
47749;SDS011;49810;48.160;10.812;2023-06-10T07:52:33;12.00;;;9.82;;
47749;SDS011;49810;48.160;10.812;2023-06-10T07:55:06;13.48;;;10.35;;
47749;SDS011;49810;48.160;10.812;2023-06-10T07:57:35;12.07;;;9.85;;
47749;SDS011;49810;48.160;10.812;2023-06-10T08:00:05;12.07;;;9.48;;
47749;SDS011;49810;48.160;10.812;2023-06-10T08:05:07;13.07;;;10.32;;
47749;SDS011;49810;48.160;10.812;2023-06-10T08:07:38;9.82;;;8.32;;
47749;SDS011;49810;48.160;10.812;2023-06-10T08:10:08;11.27;;;8.45;;
47749;SDS011;49810;48.160;10.812;2023-06-10T08:12:39;10.65;;;8.63;;
47749;SDS011;49810;48.160;10.812;2023-06-10T08:15:08;11.40;;;8.20;;
47749;SDS011;49810;48.160;10.812;2023-06-10T08:17:38;10.70;;;9.07;;
47749;SDS011;49810;48.160;10.812;2023-06-10T08:20:06;12.07;;;9.02;;
47749;SDS011;49810;48.160;10.812;2023-06-10T08:22:36;11.05;;;8.38;;
47749;SDS011;49810;48.160;10.812;2023-06-10T08:25:04;10.07;;;8.13;;
47749;SDS011;49810;48.160;10.812;2023-06-10T08:27:35;10.25;;;8.27;;
47749;SDS011;49810;48.160;10.812;2023-06-10T08:30:03;12.10;;;8.50;;
47749;SDS011;49810;48.160;10.812;2023-06-10T08:32:31;9.52;;;7.30;;
47749;SDS011;49810;48.160;10.812;2023-06-10T08:34:59;9.55;;;7.65;;
47749;SDS011;49810;48.160;10.812;2023-06-10T08:37:28;10.98;;;8.65;;
47749;SDS011;49810;48.160;10.812;2023-06-10T08:39:56;10.00;;;7.03;;
47749;SDS011;49810;48.160;10.812;2023-06-10T08:42:24;9.05;;;7.35;;
47749;SDS011;49810;48.160;10.812;2023-06-10T08:44:57;9.10;;;7.70;;
47749;SDS011;49810;48.160;10.812;2023-06-10T08:47:30;9.55;;;7.72;;
47749;SDS011;49810;48.160;10.812;2023-06-10T08:50:01;10.40;;;7.78;;
47749;SDS011;49810;48.160;10.812;2023-06-10T08:52:34;8.40;;;7.00;;
47749;SDS011;49810;48.160;10.812;2023-06-10T08:55:03;8.18;;;6.85;;
47749;SDS011;49810;48.160;10.812;2023-06-10T08:57:32;8.23;;;6.40;;
47749;SDS011;49810;48.160;10.812;2023-06-10T09:00:03;9.10;;;7.63;;
47749;SDS011;49810;48.160;10.812;2023-06-10T09:02:32;11.13;;;8.15;;
47749;SDS011;49810;48.160;10.812;2023-06-10T09:05:02;10.60;;;8.00;;
47749;SDS011;49810;48.160;10.812;2023-06-10T09:07:30;8.93;;;6.63;;
47749;SDS011;49810;48.160;10.812;2023-06-10T09:09:58;9.55;;;7.28;;
47749;SDS011;49810;48.160;10.812;2023-06-10T09:12:26;11.10;;;7.47;;
47749;SDS011;49810;48.160;10.812;2023-06-10T09:14:54;7.10;;;6.15;;
47749;SDS011;49810;48.160;10.812;2023-06-10T09:17:24;7.63;;;6.53;;
47749;SDS011;49810;48.160;10.812;2023-06-10T09:19:52;8.27;;;6.95;;
47749;SDS011;49810;48.160;10.812;2023-06-10T09:22:24;8.13;;;6.18;;
47749;SDS011;49810;48.160;10.812;2023-06-10T09:25:01;7.75;;;6.55;;
47749;SDS011;49810;48.160;10.812;2023-06-10T09:27:30;7.72;;;6.50;;
47749;SDS011;49810;48.160;10.812;2023-06-10T09:29:58;7.00;;;5.47;;
47749;SDS011;49810;48.160;10.812;2023-06-10T09:32:30;9.48;;;6.47;;
47749;SDS011;49810;48.160;10.812;2023-06-10T09:34:58;8.38;;;6.82;;
47749;SDS011;49810;48.160;10.812;2023-06-10T09:37:29;7.25;;;6.18;;
47749;SDS011;49810;48.160;10.812;2023-06-10T09:40:04;7.90;;;5.60;;
47749;SDS011;49810;48.160;10.812;2023-06-10T09:42:34;7.43;;;6.13;;
47749;SDS011;49810;48.160;10.812;2023-06-10T09:45:02;7.95;;;5.70;;
47749;SDS011;49810;48.160;10.812;2023-06-10T09:47:32;9.55;;;6.07;;
47749;SDS011;49810;48.160;10.812;2023-06-10T09:50:01;8.95;;;6.38;;
47749;SDS011;49810;48.160;10.812;2023-06-10T09:52:29;6.70;;;5.30;;
47749;SDS011;49810;48.160;10.812;2023-06-10T09:54:59;6.97;;;5.30;;
47749;SDS011;49810;48.160;10.812;2023-06-10T09:57:30;7.57;;;5.00;;
47749;SDS011;49810;48.160;10.812;2023-06-10T09:59:59;6.95;;;5.22;;
47749;SDS011;49810;48.160;10.812;2023-06-10T10:02:44;6.57;;;4.85;;
47749;SDS011;49810;48.160;10.812;2023-06-10T10:05:14;10.48;;;7.07;;
47749;SDS011;49810;48.160;10.812;2023-06-10T10:07:42;7.57;;;5.47;;
47749;SDS011;49810;48.160;10.812;2023-06-10T10:10:11;8.13;;;5.15;;
47749;SDS011;49810;48.160;10.812;2023-06-10T10:12:39;6.75;;;5.22;;
47749;SDS011;49810;48.160;10.812;2023-06-10T10:15:09;5.60;;;4.70;;
47749;SDS011;49810;48.160;10.812;2023-06-10T10:17:38;6.10;;;5.03;;
47749;SDS011;49810;48.160;10.812;2023-06-10T10:20:09;6.13;;;5.07;;
47749;SDS011;49810;48.160;10.812;2023-06-10T10:22:39;6.18;;;4.90;;
47749;SDS011;49810;48.160;10.812;2023-06-10T10:25:09;6.30;;;3.90;;
47749;SDS011;49810;48.160;10.812;2023-06-10T10:27:40;4.97;;;3.90;;
47749;SDS011;49810;48.160;10.812;2023-06-10T10:30:11;5.22;;;3.72;;
47749;SDS011;49810;48.160;10.812;2023-06-10T10:32:42;7.32;;;4.55;;
47749;SDS011;49810;48.160;10.812;2023-06-10T10:35:14;5.85;;;4.05;;
47749;SDS011;49810;48.160;10.812;2023-06-10T10:37:46;4.82;;;3.78;;
47749;SDS011;49810;48.160;10.812;2023-06-10T10:40:15;4.88;;;4.18;;
47749;SDS011;49810;48.160;10.812;2023-06-10T10:42:45;5.25;;;4.18;;
47749;SDS011;49810;48.160;10.812;2023-06-10T10:45:13;5.35;;;3.80;;
47749;SDS011;49810;48.160;10.812;2023-06-10T10:47:41;5.35;;;4.20;;
47749;SDS011;49810;48.160;10.812;2023-06-10T10:50:15;5.47;;;4.05;;
47749;SDS011;49810;48.160;10.812;2023-06-10T10:52:51;5.00;;;4.00;;
47749;SDS011;49810;48.160;10.812;2023-06-10T10:55:20;5.15;;;4.10;;
47749;SDS011;49810;48.160;10.812;2023-06-10T10:57:53;5.13;;;3.65;;
47749;SDS011;49810;48.160;10.812;2023-06-10T11:00:30;5.05;;;3.88;;
47749;SDS011;49810;48.160;10.812;2023-06-10T11:02:59;6.45;;;3.97;;
47749;SDS011;49810;48.160;10.812;2023-06-10T11:05:35;4.65;;;3.72;;
47749;SDS011;49810;48.160;10.812;2023-06-10T11:08:04;5.47;;;4.13;;
47749;SDS011;49810;48.160;10.812;2023-06-10T11:10:33;7.88;;;3.92;;
47749;SDS011;49810;48.160;10.812;2023-06-10T11:13:05;4.85;;;3.40;;
47749;SDS011;49810;48.160;10.812;2023-06-10T11:15:37;4.50;;;3.42;;
47749;SDS011;49810;48.160;10.812;2023-06-10T11:18:07;4.78;;;3.55;;
47749;SDS011;49810;48.160;10.812;2023-06-10T11:20:50;5.78;;;3.33;;
47749;SDS011;49810;48.160;10.812;2023-06-10T11:23:25;4.50;;;3.15;;
47749;SDS011;49810;48.160;10.812;2023-06-10T11:28:36;4.25;;;3.05;;
47749;SDS011;49810;48.160;10.812;2023-06-10T11:31:04;4.00;;;3.05;;
47749;SDS011;49810;48.160;10.812;2023-06-10T11:33:32;4.50;;;3.40;;
47749;SDS011;49810;48.160;10.812;2023-06-10T11:36:02;5.97;;;3.90;;
47749;SDS011;49810;48.160;10.812;2023-06-10T11:38:34;6.13;;;3.70;;
47749;SDS011;49810;48.160;10.812;2023-06-10T11:41:02;6.82;;;4.05;;
47749;SDS011;49810;48.160;10.812;2023-06-10T11:43:30;5.03;;;3.97;;
47749;SDS011;49810;48.160;10.812;2023-06-10T11:45:58;6.65;;;3.83;;
47749;SDS011;49810;48.160;10.812;2023-06-10T11:48:26;5.57;;;3.90;;
47749;SDS011;49810;48.160;10.812;2023-06-10T11:50:57;5.45;;;3.50;;
47749;SDS011;49810;48.160;10.812;2023-06-10T11:53:26;5.25;;;3.63;;
47749;SDS011;49810;48.160;10.812;2023-06-10T11:55:54;4.65;;;3.80;;
47749;SDS011;49810;48.160;10.812;2023-06-10T11:58:23;6.18;;;4.03;;
47749;SDS011;49810;48.160;10.812;2023-06-10T12:00:51;6.45;;;3.92;;
47749;SDS011;49810;48.160;10.812;2023-06-10T12:03:20;5.43;;;3.88;;
47749;SDS011;49810;48.160;10.812;2023-06-10T12:05:55;5.70;;;3.20;;
47749;SDS011;49810;48.160;10.812;2023-06-10T12:08:26;4.88;;;3.80;;
47749;SDS011;49810;48.160;10.812;2023-06-10T12:10:55;4.63;;;3.58;;
47749;SDS011;49810;48.160;10.812;2023-06-10T12:13:25;5.55;;;4.22;;
47749;SDS011;49810;48.160;10.812;2023-06-10T12:15:53;5.40;;;4.38;;
47749;SDS011;49810;48.160;10.812;2023-06-10T12:18:21;4.88;;;4.15;;
47749;SDS011;49810;48.160;10.812;2023-06-10T12:20:50;5.78;;;4.90;;
47749;SDS011;49810;48.160;10.812;2023-06-10T12:23:19;5.32;;;4.75;;
47749;SDS011;49810;48.160;10.812;2023-06-10T12:25:52;4.90;;;4.40;;
47749;SDS011;49810;48.160;10.812;2023-06-10T12:28:20;7.13;;;4.40;;
47749;SDS011;49810;48.160;10.812;2023-06-10T12:30:49;5.45;;;3.60;;
47749;SDS011;49810;48.160;10.812;2023-06-10T12:33:17;4.72;;;3.85;;
47749;SDS011;49810;48.160;10.812;2023-06-10T12:35:48;5.60;;;3.63;;
47749;SDS011;49810;48.160;10.812;2023-06-10T12:38:20;4.47;;;3.45;;
47749;SDS011;49810;48.160;10.812;2023-06-10T12:40:49;5.85;;;3.47;;
47749;SDS011;49810;48.160;10.812;2023-06-10T12:43:20;5.65;;;3.85;;
47749;SDS011;49810;48.160;10.812;2023-06-10T12:45:48;4.22;;;3.70;;
47749;SDS011;49810;48.160;10.812;2023-06-10T12:48:17;5.18;;;4.20;;
47749;SDS011;49810;48.160;10.812;2023-06-10T12:50:46;8.05;;;4.60;;
47749;SDS011;49810;48.160;10.812;2023-06-10T12:53:14;4.85;;;4.20;;
47749;SDS011;49810;48.160;10.812;2023-06-10T12:55:43;4.75;;;4.00;;
47749;SDS011;49810;48.160;10.812;2023-06-10T12:58:11;4.82;;;4.10;;
47749;SDS011;49810;48.160;10.812;2023-06-10T13:00:41;5.93;;;4.30;;
47749;SDS011;49810;48.160;10.812;2023-06-10T13:03:10;5.95;;;4.10;;
47749;SDS011;49810;48.160;10.812;2023-06-10T13:05:38;5.10;;;3.85;;
47749;SDS011;49810;48.160;10.812;2023-06-10T13:08:08;5.50;;;3.80;;
47749;SDS011;49810;48.160;10.812;2023-06-10T13:10:37;5.18;;;4.28;;
47749;SDS011;49810;48.160;10.812;2023-06-10T13:13:05;6.45;;;4.43;;
47749;SDS011;49810;48.160;10.812;2023-06-10T13:15:35;4.65;;;3.97;;
47749;SDS011;49810;48.160;10.812;2023-06-10T13:18:11;5.65;;;3.97;;
47749;SDS011;49810;48.160;10.812;2023-06-10T13:20:39;8.02;;;4.63;;
47749;SDS011;49810;48.160;10.812;2023-06-10T13:23:07;5.00;;;3.90;;
47749;SDS011;49810;48.160;10.812;2023-06-10T13:25:35;4.97;;;3.80;;
47749;SDS011;49810;48.160;10.812;2023-06-10T13:28:03;5.70;;;4.18;;
47749;SDS011;49810;48.160;10.812;2023-06-10T13:30:31;5.82;;;4.80;;
47749;SDS011;49810;48.160;10.812;2023-06-10T13:32:59;5.95;;;4.28;;
47749;SDS011;49810;48.160;10.812;2023-06-10T13:35:31;6.25;;;4.40;;
47749;SDS011;49810;48.160;10.812;2023-06-10T13:37:58;6.05;;;4.60;;
47749;SDS011;49810;48.160;10.812;2023-06-10T13:40:26;5.63;;;4.45;;
47749;SDS011;49810;48.160;10.812;2023-06-10T13:42:55;6.97;;;4.28;;
47749;SDS011;49810;48.160;10.812;2023-06-10T13:45:23;8.10;;;4.35;;
47749;SDS011;49810;48.160;10.812;2023-06-10T13:47:52;8.77;;;4.75;;
47749;SDS011;49810;48.160;10.812;2023-06-10T13:50:20;6.22;;;4.47;;
47749;SDS011;49810;48.160;10.812;2023-06-10T13:52:49;5.43;;;3.97;;
47749;SDS011;49810;48.160;10.812;2023-06-10T13:55:17;4.88;;;4.35;;
47749;SDS011;49810;48.160;10.812;2023-06-10T13:57:46;5.35;;;4.30;;
47749;SDS011;49810;48.160;10.812;2023-06-10T14:00:15;4.55;;;4.05;;
47749;SDS011;49810;48.160;10.812;2023-06-10T14:02:43;4.68;;;3.90;;
47749;SDS011;49810;48.160;10.812;2023-06-10T14:05:11;5.13;;;4.30;;
47749;SDS011;49810;48.160;10.812;2023-06-10T14:07:40;4.88;;;3.78;;
47749;SDS011;49810;48.160;10.812;2023-06-10T14:10:10;4.43;;;3.92;;
47749;SDS011;49810;48.160;10.812;2023-06-10T14:12:38;5.53;;;3.85;;
47749;SDS011;49810;48.160;10.812;2023-06-10T14:15:07;6.10;;;3.40;;
47749;SDS011;49810;48.160;10.812;2023-06-10T14:17:35;4.65;;;3.58;;
47749;SDS011;49810;48.160;10.812;2023-06-10T14:20:03;4.72;;;3.83;;
47749;SDS011;49810;48.160;10.812;2023-06-10T14:22:32;5.43;;;3.97;;
47749;SDS011;49810;48.160;10.812;2023-06-10T14:25:01;4.50;;;4.10;;
47749;SDS011;49810;48.160;10.812;2023-06-10T14:27:31;5.20;;;4.03;;
47749;SDS011;49810;48.160;10.812;2023-06-10T14:29:59;4.78;;;3.55;;
47749;SDS011;49810;48.160;10.812;2023-06-10T14:32:27;5.45;;;4.40;;
47749;SDS011;49810;48.160;10.812;2023-06-10T14:34:57;4.63;;;4.15;;
47749;SDS011;49810;48.160;10.812;2023-06-10T14:37:25;4.78;;;3.83;;
47749;SDS011;49810;48.160;10.812;2023-06-10T14:39:54;7.32;;;4.25;;